Friday, January 18, 2019, 2:36 AM EST
Back to Local

KMGJ, Montgomery Orange Co Airport

Location: Montgomery, NY, United States Lat: 41.517
Local Time: 2:36 AM EST ( 7:36 GMT) Lon: -74.267
Time Zone: US/Eastern Elev: 354 ft

Show me the last for .
Show Decoded

2019-01-18 02:22 METAR KMGJ 180722Z AUTO 01004KT 1 1/2SM -SN BR OVC031 M05/M07 A3017 RMK AO2
                 P0000 T10501067 =
2019-01-18 02:12 METAR KMGJ 180712Z AUTO 02004KT 2SM -SN BR OVC033 M05/M07 A3017 RMK AO2 P0000
                 T10501067 =
2019-01-18 01:54 METAR KMGJ 180654Z AUTO 03004KT 1 3/4SM -SN BR OVC033 M05/M07 A3018 RMK AO2
                 SLP223 P0001 T10501067 =
2019-01-18 01:44 METAR KMGJ 180644Z AUTO 03004KT 2SM -SN BR OVC039 M05/M07 A3018 RMK AO2 P0000
                 T10501067 =
2019-01-18 01:33 METAR KMGJ 180633Z AUTO 02005KT 3SM -SN BR OVC041 M05/M07 A3018 RMK AO2 P0000
                 T10501067 =
2019-01-18 00:54 METAR KMGJ 180554Z AUTO 01003KT 2 1/2SM -SN BR OVC037 M05/M07 A3019 RMK AO2
                 SLP227 P0001 60002 T10501067 11039 21050 58014 =
2019-01-18 00:39 METAR KMGJ 180539Z AUTO 00000KT 2SM -SN BR OVC031 M05/M07 A3019 RMK AO2 P0001
                 T10501067 =
2019-01-18 00:32 METAR KMGJ 180532Z AUTO 00000KT 1 3/4SM -SN BR OVC025 M05/M07 A3019 RMK AO2
                 P0001 T10501067 =
2019-01-18 00:25 METAR KMGJ 180525Z AUTO 00000KT 1SM -SN BR OVC021 M05/M07 A3020 RMK AO2 P0001
                 T10501067 =
2019-01-18 00:05 METAR KMGJ 180505Z AUTO 00000KT 1 1/4SM -SN BR OVC016 M05/M07 A3021 RMK AO2
                 P0000 T10501072 =
2019-01-17 23:54 METAR KMGJ 180454Z AUTO 00000KT 1SM -SN BR VV015 M05/M07 A3022 RMK AO2 SLP237
                 P0001 T10501072 410171072 =
2019-01-17 23:46 METAR KMGJ 180446Z AUTO 00000KT 3/4SM -SN BR VV015 M05/M07 A3022 RMK AO2 P0000
                 T10501072 =
2019-01-17 23:12 METAR KMGJ 180412Z AUTO 00000KT 1 3/4SM -SN OVC025 M04/M09 A3023 RMK AO2 P0000
                 T10441089 =
2019-01-17 22:54 METAR KMGJ 180354Z AUTO 00000KT 2 1/2SM -SN OVC028 M04/M10 A3023 RMK AO2 SNB41
                 SLP240 P0000 T10391100 =
2019-01-17 21:54 METAR KMGJ 180254Z AUTO 04004KT 10SM OVC070 M04/M11 A3023 RMK AO2 SLP241
                 T10391106 58014 =
2019-01-17 20:54 METAR KMGJ 180154Z AUTO 00000KT 10SM BKN110 M04/M11 A3024 RMK AO2 SLP246
                 T10441111 =
2019-01-17 19:54 METAR KMGJ 180054Z AUTO 04003KT 10SM BKN110 M04/M12 A3026 RMK AO2 SLP253
                 T10441122 =
2019-01-17 18:54 METAR KMGJ 172354Z AUTO 01003KT 10SM BKN110 M05/M11 A3027 RMK AO2 SLP256
                 T10501111 11017 21050 50000 =
2019-01-17 17:54 METAR KMGJ 172254Z AUTO 00000KT 10SM BKN120 M03/M16 A3027 RMK AO2 SLP258
                 T10331156 =
2019-01-17 16:54 METAR KMGJ 172154Z AUTO 09003KT 10SM BKN110 M03/M16 A3027 RMK AO2 SLP253
                 T10331156 =
2019-01-17 15:54 METAR KMGJ 172054Z AUTO 09004KT 10SM FEW120 M02/M15 A3027 RMK AO2 SLP255
                 T10221150 56019 =
2019-01-17 14:54 METAR KMGJ 171954Z AUTO 00000KT 10SM CLR M02/M15 A3029 RMK AO2 SLP262 T10171150
                 =
2019-01-17 13:54 METAR KMGJ 171854Z AUTO 36005KT 10SM CLR M02/M15 A3030 RMK AO2 SLP267 T10221150
                 =
2019-01-17 12:54 METAR KMGJ 171754Z AUTO 06004KT 10SM CLR M02/M14 A3033 RMK AO2 SLP274 T10221144
                 11022 21072 58027 =
2019-01-17 11:54 METAR KMGJ 171654Z AUTO 01003KT 10SM CLR M03/M14 A3037 RMK AO2 SLP289 T10331139
                 =
2019-01-17 10:54 METAR KMGJ 171554Z AUTO 01004KT 10SM CLR M04/M14 A3039 RMK AO2 SLP297 T10441139
                 =
2019-01-17 09:54 METAR KMGJ 171454Z AUTO 07004KT 10SM CLR M06/M15 A3041 RMK AO2 SLP302 T10561150
                 53018 =
2019-01-17 08:54 METAR KMGJ 171354Z AUTO 09005KT 10SM CLR M07/M13 A3039 RMK AO2 SLP296 T10671133
                 =
2019-01-17 07:54 METAR KMGJ 171254Z AUTO 03006KT 10SM CLR M07/M12 A3037 RMK AO2 SLP289 T10671122
                 =
2019-01-17 06:54 METAR KMGJ 171154Z AUTO 31005KT 10SM CLR M07/M13 A3035 RMK AO2 SLP284 T10671128
                 11044 21067 53022 =
2019-01-17 05:54 METAR KMGJ 171054Z AUTO 30005KT 10SM CLR M07/M13 A3032 RMK AO2 SLP271 T10671128
                 =
2019-01-17 04:54 METAR KMGJ 170954Z AUTO 32008KT 10SM CLR M06/M13 A3030 RMK AO2 SLP263 T10611133
                 =
2019-01-17 03:54 METAR KMGJ 170854Z AUTO 29008KT 10SM CLR M06/M13 A3029 RMK AO2 SLP261 T10611128
                 50009 =
2019-01-17 02:54 METAR KMGJ 170754Z AUTO 29007KT 10SM CLR M06/M13 A3031 RMK AO2 SLP266 T10561128
                 =

Support USWX by starting your Amazon purchase here.